Time,TemperatureF,DewpointF,PressureIn,WindDirection,WindDirectionDegrees,WindSpeedMPH,WindSpeedGustMPH,Humidity,HourlyPrecipIn,Conditions,Clouds,dailyrainin,SolarRadiationWatts/m^2,SoftwareType,DateUTC
2013-07-04 00:15:00,71.7,44.0,29.94,East,101,0.0,1.0,37,0.00,CLR,SKC,0.00,0.0,WeatherDisplay:10.37,2013-07-04 06:15:00,
2013-07-04 00:45:00,70.7,43.1,29.93,ESE,102,0.0,2.0,37,0.00,CLR,SKC,0.00,0.0,WeatherDisplay:10.37,2013-07-04 06:45:00,
2013-07-04 01:15:00,72.1,42.9,29.94,ESE,103,0.0,2.0,35,0.00,CLR,SKC,0.00,0.0,WeatherDisplay:10.37,2013-07-04 07:15:00,
2013-07-04 01:45:00,71.5,43.8,29.93,ESE,103,0.0,2.0,37,0.00,CLR,SKC,0.00,0.0,WeatherDisplay:10.37,2013-07-04 07:45:00,
2013-07-04 02:15:00,70.6,46.4,29.96,WSW,254,0.0,3.0,42,0.00,CLR,SKC,0.00,0.0,WeatherDisplay:10.37,2013-07-04 08:15:00,
2013-07-04 02:45:00,71.8,44.8,29.96,East,99,2.0,6.0,38,0.00,CLR,SKC,0.00,0.0,WeatherDisplay:10.37,2013-07-04 08:45:00,
2013-07-04 03:15:00,72.3,43.8,29.95,ESE,114,0.0,3.0,36,0.00,CLR,SKC,0.00,0.0,WeatherDisplay:10.37,2013-07-04 09:15:00,
2013-07-04 03:45:00,70.9,44.7,29.95,ESE,118,0.0,5.0,39,0.00,CLR,SKC,0.00,0.0,WeatherDisplay:10.37,2013-07-04 09:45:00,
2013-07-04 04:15:00,70.1,45.3,29.95,East,81,1.0,3.0,41,0.00,CLR,SKC,0.00,0.0,WeatherDisplay:10.37,2013-07-04 10:15:00,
2013-07-04 04:45:00,71.6,44.6,29.95,ENE,73,2.0,7.0,38,0.00,CLR,SKC,0.00,0.0,WeatherDisplay:10.37,2013-07-04 10:45:00,
2013-07-04 05:15:00,70.8,45.3,29.99,NE,38,2.0,10.0,40,0.00,CLR,SKC,0.00,0.0,WeatherDisplay:10.37,2013-07-04 11:15:00,
2013-07-04 05:45:00,70.0,50.0,30.00,East,92,5.0,8.0,49,0.00,CLR,SKC,0.00,0.0,WeatherDisplay:10.37,2013-07-04 11:45:00,
2013-07-04 06:15:00,69.1,50.2,29.98,NE,46,3.0,12.0,51,0.00,OVC,SKC,0.00,0.0,WeatherDisplay:10.37,2013-07-04 12:15:00,
2013-07-04 06:45:00,67.5,54.5,29.98,North,9,6.0,10.0,63,0.00,BKN,SKC,0.00,23.0,WeatherDisplay:10.37,2013-07-04 12:45:00,
2013-07-04 07:15:00,67.6,54.6,29.98,East,83,6.0,9.0,63,0.00,BKN,SKC,0.00,47.0,WeatherDisplay:10.37,2013-07-04 13:15:00,
2013-07-04 07:45:00,68.3,53.4,29.98,ENE,67,2.0,5.0,59,0.00,BKN,SKC,0.00,54.0,WeatherDisplay:10.37,2013-07-04 13:45:00,
2013-07-04 08:15:00,69.0,53.1,29.98,NNE,32,1.0,8.0,57,0.00,BKN,SKC,0.00,105.0,WeatherDisplay:10.37,2013-07-04 14:15:00,
2013-07-04 08:45:00,69.2,53.8,29.98,NE,48,1.0,5.0,58,0.00,BKN,SKC,0.00,160.0,WeatherDisplay:10.37,2013-07-04 14:45:00,
2013-07-04 09:15:00,71.3,54.3,29.98,North,359,3.0,5.0,55,0.00,SCT,SKC,0.00,439.0,WeatherDisplay:10.37,2013-07-04 15:15:00,
2013-07-04 09:45:00,73.4,51.9,29.97,NNW,342,1.0,3.0,47,0.00,FEW,SKC,0.00,390.0,WeatherDisplay:10.37,2013-07-04 15:45:00,
2013-07-04 10:15:00,75.4,52.0,29.96,West,276,1.0,4.0,44,0.00,FEW,SKC,0.00,554.0,WeatherDisplay:10.37,2013-07-04 16:15:00,
2013-07-04 10:45:00,76.5,53.0,29.95,SW,224,0.0,5.0,44,0.00,SCT,SKC,0.00,540.0,WeatherDisplay:10.37,2013-07-04 16:45:00,
2013-07-04 11:15:00,76.6,53.1,29.95,WNW,284,5.0,6.0,44,0.00,SCT,SKC,0.00,564.0,WeatherDisplay:10.37,2013-07-04 17:15:00,
2013-07-04 11:45:00,79.4,54.3,29.94,WNW,282,5.0,7.0,42,0.00,FEW,SKC,0.00,1002.0,WeatherDisplay:10.37,2013-07-04 17:45:00,
2013-07-04 12:15:00,79.1,54.0,29.94,WNW,293,2.0,6.0,42,0.00,BKN,SKC,0.00,487.0,WeatherDisplay:10.37,2013-07-04 18:15:00,
2013-07-04 12:45:00,83.6,51.5,29.93,SSW,206,3.0,8.0,33,0.00,CLR,SKC,0.00,881.0,WeatherDisplay:10.37,2013-07-04 18:45:00,
2013-07-04 13:15:00,84.0,50.1,29.92,SW,226,2.0,7.0,31,0.00,FEW,SKC,0.00,954.0,WeatherDisplay:10.37,2013-07-04 19:15:00,
2013-07-04 13:45:00,86.0,50.0,29.92,SW,232,2.0,6.0,29,0.00,FEW,SKC,0.00,946.0,WeatherDisplay:10.37,2013-07-04 19:45:00,
2013-07-04 14:15:00,85.0,50.1,29.90,North,10,3.0,5.0,30,0.00,FEW,SKC,0.00,930.0,WeatherDisplay:10.37,2013-07-04 20:15:00,
2013-07-04 14:45:00,86.9,49.8,29.89,WNW,289,1.0,5.0,28,0.00,CLR,SKC,0.00,918.0,WeatherDisplay:10.37,2013-07-04 20:45:00,
2013-07-04 15:15:00,88.1,48.9,29.87,WSW,253,1.0,6.0,26,0.00,CLR,SKC,0.00,909.0,WeatherDisplay:10.37,2013-07-04 21:15:00,
2013-07-04 15:45:00,90.2,50.7,29.86,West,264,2.0,7.0,26,0.00,CLR,SKC,0.00,844.0,WeatherDisplay:10.37,2013-07-04 21:45:00,
2013-07-04 16:15:00,89.8,49.3,29.84,WNW,300,2.0,10.0,25,0.00,CLR,SKC,0.00,791.0,WeatherDisplay:10.37,2013-07-04 22:15:00,
2013-07-04 16:45:00,89.6,50.1,29.83,WNW,282,6.0,10.0,26,0.00,CLR,SKC,0.00,213.0,WeatherDisplay:10.37,2013-07-04 22:45:00,
2013-07-04 17:15:00,88.6,51.3,29.83,NNW,331,8.0,12.0,28,0.00,CLR,SKC,0.00,617.0,WeatherDisplay:10.37,2013-07-04 23:15:00,
2013-07-04 17:45:00,88.0,53.6,29.81,NNW,338,6.0,9.0,31,0.00,CLR,SKC,0.00,427.0,WeatherDisplay:10.37,2013-07-04 23:45:00,
2013-07-04 18:15:00,87.5,54.0,29.81,NW,315,2.0,5.0,32,0.00,FEW,SKC,0.00,360.0,WeatherDisplay:10.37,2013-07-05 00:15:00,
2013-07-04 18:45:00,87.5,52.2,29.81,WNW,283,3.0,5.0,30,0.00,CLR,SKC,0.00,269.0,WeatherDisplay:10.37,2013-07-05 00:45:00,
2013-07-04 19:15:00,86.6,52.4,29.81,WNW,298,1.0,4.0,31,0.00,SCT,SKC,0.00,153.0,WeatherDisplay:10.37,2013-07-05 01:15:00,
2013-07-04 19:45:00,84.7,52.4,29.81,NW,318,3.0,5.0,33,0.00,BKN,SKC,0.00,91.0,WeatherDisplay:10.37,2013-07-05 01:45:00,
2013-07-04 20:15:00,82.9,53.2,29.82,NNW,338,0.0,2.0,36,0.00,SCT,SKC,0.00,46.0,WeatherDisplay:10.37,2013-07-05 02:15:00,
2013-07-04 20:45:00,81.1,53.1,29.82,NNE,15,3.0,6.0,38,0.00,CLR,SKC,0.00,9.0,WeatherDisplay:10.37,2013-07-05 02:45:00,
2013-07-04 21:15:00,79.2,52.8,29.82,ENE,68,1.0,3.0,40,0.00,CLR,SKC,0.00,0.0,WeatherDisplay:10.37,2013-07-05 03:15:00,
2013-07-04 21:45:00,78.5,52.8,29.83,East,89,3.0,6.0,41,0.00,CLR,SKC,0.00,0.0,WeatherDisplay:10.37,2013-07-05 03:45:00,
2013-07-04 22:15:00,76.2,52.7,29.85,East,92,0.0,1.0,44,0.00,CLR,SKC,0.00,0.0,WeatherDisplay:10.37,2013-07-05 04:15:00,
2013-07-04 22:45:00,73.5,52.1,29.86,East,92,0.0,1.0,47,0.00,CLR,SKC,0.00,0.0,WeatherDisplay:10.37,2013-07-05 04:45:00,
2013-07-04 23:15:00,73.3,51.8,29.86,East,92,0.0,2.0,47,0.00,CLR,SKC,0.00,0.0,WeatherDisplay:10.37,2013-07-05 05:15:00,
2013-07-04 23:45:00,73.5,52.0,29.88,SSW,198,1.0,6.0,47,0.00,CLR,SKC,0.00,0.0,WeatherDisplay:10.37,2013-07-05 05:45:00,